sensor_id;sensor_type;location;lat;lon;timestamp;P1;durP1;ratioP1;P2;durP2;ratioP2
85701;SDS011;76139;50.888;3.882;2024-03-25T00:01:19;10.02;;;5.18;;
85701;SDS011;76139;50.888;3.882;2024-03-25T00:03:44;11.30;;;5.47;;
85701;SDS011;76139;50.888;3.882;2024-03-25T00:06:10;11.40;;;5.68;;
85701;SDS011;76139;50.888;3.882;2024-03-25T00:08:36;15.10;;;6.13;;
85701;SDS011;76139;50.888;3.882;2024-03-25T00:11:02;10.32;;;6.13;;
85701;SDS011;76139;50.888;3.882;2024-03-25T00:13:28;10.40;;;5.20;;
85701;SDS011;76139;50.888;3.882;2024-03-25T00:15:53;8.68;;;5.03;;
85701;SDS011;76139;50.888;3.882;2024-03-25T00:18:19;9.30;;;4.72;;
85701;SDS011;76139;50.888;3.882;2024-03-25T00:20:45;10.93;;;5.22;;
85701;SDS011;76139;50.888;3.882;2024-03-25T00:23:10;9.32;;;4.63;;
85701;SDS011;76139;50.888;3.882;2024-03-25T00:25:37;10.52;;;5.03;;
85701;SDS011;76139;50.888;3.882;2024-03-25T00:28:02;9.95;;;4.97;;
85701;SDS011;76139;50.888;3.882;2024-03-25T00:30:29;11.20;;;5.80;;
85701;SDS011;76139;50.888;3.882;2024-03-25T00:32:55;12.25;;;5.68;;
85701;SDS011;76139;50.888;3.882;2024-03-25T00:35:21;8.80;;;4.95;;
85701;SDS011;76139;50.888;3.882;2024-03-25T00:37:46;8.32;;;4.75;;
85701;SDS011;76139;50.888;3.882;2024-03-25T00:40:12;9.75;;;5.15;;
85701;SDS011;76139;50.888;3.882;2024-03-25T00:42:38;8.27;;;4.70;;
85701;SDS011;76139;50.888;3.882;2024-03-25T00:45:04;10.38;;;5.03;;
85701;SDS011;76139;50.888;3.882;2024-03-25T00:47:33;10.90;;;5.03;;
85701;SDS011;76139;50.888;3.882;2024-03-25T00:49:59;11.52;;;5.80;;
85701;SDS011;76139;50.888;3.882;2024-03-25T00:52:24;7.60;;;4.63;;
85701;SDS011;76139;50.888;3.882;2024-03-25T00:54:50;10.50;;;5.38;;
85701;SDS011;76139;50.888;3.882;2024-03-25T00:57:16;10.63;;;5.78;;
85701;SDS011;76139;50.888;3.882;2024-03-25T00:59:42;10.45;;;5.40;;
85701;SDS011;76139;50.888;3.882;2024-03-25T01:02:07;13.77;;;5.85;;
85701;SDS011;76139;50.888;3.882;2024-03-25T01:04:33;11.25;;;5.50;;
85701;SDS011;76139;50.888;3.882;2024-03-25T01:06:59;9.20;;;5.35;;
85701;SDS011;76139;50.888;3.882;2024-03-25T01:09:24;11.52;;;6.10;;
85701;SDS011;76139;50.888;3.882;2024-03-25T01:11:50;10.68;;;6.10;;
85701;SDS011;76139;50.888;3.882;2024-03-25T01:14:16;12.27;;;5.75;;
85701;SDS011;76139;50.888;3.882;2024-03-25T01:16:42;14.65;;;5.57;;
85701;SDS011;76139;50.888;3.882;2024-03-25T01:19:08;10.88;;;5.18;;
85701;SDS011;76139;50.888;3.882;2024-03-25T01:21:34;11.07;;;5.95;;
85701;SDS011;76139;50.888;3.882;2024-03-25T01:24:00;10.65;;;5.80;;
85701;SDS011;76139;50.888;3.882;2024-03-25T01:26:26;14.70;;;5.70;;
85701;SDS011;76139;50.888;3.882;2024-03-25T01:28:54;15.40;;;6.78;;
85701;SDS011;76139;50.888;3.882;2024-03-25T01:31:19;11.65;;;5.88;;
85701;SDS011;76139;50.888;3.882;2024-03-25T01:33:45;11.20;;;6.45;;
85701;SDS011;76139;50.888;3.882;2024-03-25T01:36:11;12.85;;;5.80;;
85701;SDS011;76139;50.888;3.882;2024-03-25T01:38:42;11.90;;;6.15;;
85701;SDS011;76139;50.888;3.882;2024-03-25T01:41:11;13.25;;;6.57;;
85701;SDS011;76139;50.888;3.882;2024-03-25T01:43:38;16.77;;;6.90;;
85701;SDS011;76139;50.888;3.882;2024-03-25T01:46:04;12.80;;;6.80;;
85701;SDS011;76139;50.888;3.882;2024-03-25T01:48:30;12.15;;;7.28;;
85701;SDS011;76139;50.888;3.882;2024-03-25T01:50:56;17.48;;;7.03;;
85701;SDS011;76139;50.888;3.882;2024-03-25T01:53:23;14.90;;;6.50;;
85701;SDS011;76139;50.888;3.882;2024-03-25T01:55:51;13.88;;;7.15;;
85701;SDS011;76139;50.888;3.882;2024-03-25T01:58:20;21.92;;;7.70;;
85701;SDS011;76139;50.888;3.882;2024-03-25T02:00:46;14.60;;;7.25;;
85701;SDS011;76139;50.888;3.882;2024-03-25T02:03:12;13.00;;;6.97;;
85701;SDS011;76139;50.888;3.882;2024-03-25T02:05:39;15.95;;;7.57;;
85701;SDS011;76139;50.888;3.882;2024-03-25T02:08:05;16.25;;;7.85;;
85701;SDS011;76139;50.888;3.882;2024-03-25T02:10:31;17.25;;;7.10;;
85701;SDS011;76139;50.888;3.882;2024-03-25T02:12:57;15.80;;;7.45;;
85701;SDS011;76139;50.888;3.882;2024-03-25T02:15:24;13.52;;;6.68;;
85701;SDS011;76139;50.888;3.882;2024-03-25T02:17:51;17.55;;;7.60;;
85701;SDS011;76139;50.888;3.882;2024-03-25T02:20:17;12.65;;;7.18;;
85701;SDS011;76139;50.888;3.882;2024-03-25T02:22:43;19.70;;;8.27;;
85701;SDS011;76139;50.888;3.882;2024-03-25T02:25:09;16.70;;;8.18;;
85701;SDS011;76139;50.888;3.882;2024-03-25T02:27:36;17.63;;;7.90;;
85701;SDS011;76139;50.888;3.882;2024-03-25T02:30:07;17.48;;;7.72;;
85701;SDS011;76139;50.888;3.882;2024-03-25T02:32:35;19.45;;;8.13;;
85701;SDS011;76139;50.888;3.882;2024-03-25T02:35:05;16.42;;;8.35;;
85701;SDS011;76139;50.888;3.882;2024-03-25T02:37:33;17.75;;;8.35;;
85701;SDS011;76139;50.888;3.882;2024-03-25T02:39:59;15.32;;;7.00;;
85701;SDS011;76139;50.888;3.882;2024-03-25T02:42:30;18.00;;;8.75;;
85701;SDS011;76139;50.888;3.882;2024-03-25T02:44:56;17.05;;;8.32;;
85701;SDS011;76139;50.888;3.882;2024-03-25T02:47:22;21.52;;;8.45;;
85701;SDS011;76139;50.888;3.882;2024-03-25T02:49:48;18.08;;;8.40;;
85701;SDS011;76139;50.888;3.882;2024-03-25T02:52:14;25.08;;;9.52;;
85701;SDS011;76139;50.888;3.882;2024-03-25T02:54:40;18.95;;;8.18;;
85701;SDS011;76139;50.888;3.882;2024-03-25T02:57:06;17.83;;;8.35;;
85701;SDS011;76139;50.888;3.882;2024-03-25T02:59:31;18.05;;;9.90;;
85701;SDS011;76139;50.888;3.882;2024-03-25T03:01:57;19.95;;;8.93;;
85701;SDS011;76139;50.888;3.882;2024-03-25T03:04:23;21.95;;;9.50;;
85701;SDS011;76139;50.888;3.882;2024-03-25T03:06:48;19.98;;;8.57;;
85701;SDS011;76139;50.888;3.882;2024-03-25T03:09:14;19.52;;;7.88;;
85701;SDS011;76139;50.888;3.882;2024-03-25T03:11:40;18.80;;;8.20;;
85701;SDS011;76139;50.888;3.882;2024-03-25T03:14:06;22.55;;;9.30;;
85701;SDS011;76139;50.888;3.882;2024-03-25T03:16:32;15.48;;;7.10;;
85701;SDS011;76139;50.888;3.882;2024-03-25T03:18:57;19.45;;;6.78;;
85701;SDS011;76139;50.888;3.882;2024-03-25T03:21:23;16.65;;;8.75;;
85701;SDS011;76139;50.888;3.882;2024-03-25T03:23:49;18.92;;;8.25;;
85701;SDS011;76139;50.888;3.882;2024-03-25T03:26:14;18.98;;;8.07;;
85701;SDS011;76139;50.888;3.882;2024-03-25T03:28:40;25.63;;;9.32;;
85701;SDS011;76139;50.888;3.882;2024-03-25T03:31:06;21.92;;;10.90;;
85701;SDS011;76139;50.888;3.882;2024-03-25T03:33:32;17.65;;;8.13;;
85701;SDS011;76139;50.888;3.882;2024-03-25T03:35:57;19.33;;;8.43;;
85701;SDS011;76139;50.888;3.882;2024-03-25T03:38:23;19.55;;;8.60;;
85701;SDS011;76139;50.888;3.882;2024-03-25T03:40:59;18.80;;;8.73;;
85701;SDS011;76139;50.888;3.882;2024-03-25T03:43:25;20.33;;;7.75;;
85701;SDS011;76139;50.888;3.882;2024-03-25T03:45:51;22.73;;;9.05;;
85701;SDS011;76139;50.888;3.882;2024-03-25T03:48:17;21.95;;;8.05;;
85701;SDS011;76139;50.888;3.882;2024-03-25T03:50:42;24.30;;;9.15;;
85701;SDS011;76139;50.888;3.882;2024-03-25T03:53:08;21.50;;;9.40;;
85701;SDS011;76139;50.888;3.882;2024-03-25T03:55:35;20.98;;;8.68;;
85701;SDS011;76139;50.888;3.882;2024-03-25T03:58:01;23.60;;;10.05;;
85701;SDS011;76139;50.888;3.882;2024-03-25T04:00:26;21.80;;;9.35;;
85701;SDS011;76139;50.888;3.882;2024-03-25T04:02:52;23.80;;;9.02;;
85701;SDS011;76139;50.888;3.882;2024-03-25T04:05:18;31.40;;;10.88;;
85701;SDS011;76139;50.888;3.882;2024-03-25T04:07:44;29.85;;;11.68;;
85701;SDS011;76139;50.888;3.882;2024-03-25T04:10:10;28.35;;;10.70;;
85701;SDS011;76139;50.888;3.882;2024-03-25T04:12:36;26.80;;;10.82;;
85701;SDS011;76139;50.888;3.882;2024-03-25T04:15:02;31.45;;;11.18;;
85701;SDS011;76139;50.888;3.882;2024-03-25T04:17:28;31.25;;;10.45;;
85701;SDS011;76139;50.888;3.882;2024-03-25T04:19:54;33.83;;;11.07;;
85701;SDS011;76139;50.888;3.882;2024-03-25T04:22:20;25.35;;;10.23;;
85701;SDS011;76139;50.888;3.882;2024-03-25T04:24:45;27.05;;;10.48;;
85701;SDS011;76139;50.888;3.882;2024-03-25T04:27:11;20.92;;;9.38;;
85701;SDS011;76139;50.888;3.882;2024-03-25T04:29:37;20.83;;;8.68;;
85701;SDS011;76139;50.888;3.882;2024-03-25T04:32:03;24.20;;;7.95;;
85701;SDS011;76139;50.888;3.882;2024-03-25T04:34:29;20.65;;;8.25;;
85701;SDS011;76139;50.888;3.882;2024-03-25T04:36:55;30.73;;;9.57;;
85701;SDS011;76139;50.888;3.882;2024-03-25T04:39:21;27.10;;;8.05;;
85701;SDS011;76139;50.888;3.882;2024-03-25T04:41:48;16.30;;;6.20;;
85701;SDS011;76139;50.888;3.882;2024-03-25T04:44:13;26.42;;;9.00;;
85701;SDS011;76139;50.888;3.882;2024-03-25T04:46:39;24.60;;;6.78;;
85701;SDS011;76139;50.888;3.882;2024-03-25T04:49:05;21.33;;;6.80;;
85701;SDS011;76139;50.888;3.882;2024-03-25T04:51:31;25.20;;;8.02;;
85701;SDS011;76139;50.888;3.882;2024-03-25T04:53:57;25.60;;;7.65;;
85701;SDS011;76139;50.888;3.882;2024-03-25T04:56:23;17.52;;;7.40;;
85701;SDS011;76139;50.888;3.882;2024-03-25T04:58:48;20.85;;;9.05;;
85701;SDS011;76139;50.888;3.882;2024-03-25T05:01:14;16.27;;;6.80;;
85701;SDS011;76139;50.888;3.882;2024-03-25T05:03:40;19.67;;;6.15;;
85701;SDS011;76139;50.888;3.882;2024-03-25T05:06:05;20.67;;;7.43;;
85701;SDS011;76139;50.888;3.882;2024-03-25T05:08:34;20.50;;;7.50;;
85701;SDS011;76139;50.888;3.882;2024-03-25T05:11:00;21.20;;;6.55;;
85701;SDS011;76139;50.888;3.882;2024-03-25T05:13:26;24.40;;;8.05;;
85701;SDS011;76139;50.888;3.882;2024-03-25T05:15:51;23.40;;;6.10;;
85701;SDS011;76139;50.888;3.882;2024-03-25T05:18:17;28.42;;;9.07;;
85701;SDS011;76139;50.888;3.882;2024-03-25T05:20:43;19.05;;;6.43;;
85701;SDS011;76139;50.888;3.882;2024-03-25T05:23:10;21.20;;;6.28;;
85701;SDS011;76139;50.888;3.882;2024-03-25T05:25:36;16.17;;;5.60;;
85701;SDS011;76139;50.888;3.882;2024-03-25T05:28:03;19.08;;;6.82;;
85701;SDS011;76139;50.888;3.882;2024-03-25T05:30:29;20.95;;;6.38;;
85701;SDS011;76139;50.888;3.882;2024-03-25T05:32:55;21.23;;;6.50;;
85701;SDS011;76139;50.888;3.882;2024-03-25T05:35:21;20.50;;;7.20;;
85701;SDS011;76139;50.888;3.882;2024-03-25T05:37:47;17.25;;;5.75;;
85701;SDS011;76139;50.888;3.882;2024-03-25T05:40:12;17.33;;;7.15;;
85701;SDS011;76139;50.888;3.882;2024-03-25T05:42:39;17.95;;;6.40;;
85701;SDS011;76139;50.888;3.882;2024-03-25T05:45:05;20.60;;;6.43;;
85701;SDS011;76139;50.888;3.882;2024-03-25T05:47:32;18.40;;;6.28;;
85701;SDS011;76139;50.888;3.882;2024-03-25T05:49:57;19.80;;;6.72;;
85701;SDS011;76139;50.888;3.882;2024-03-25T05:52:23;17.55;;;6.93;;
85701;SDS011;76139;50.888;3.882;2024-03-25T05:54:48;27.95;;;7.82;;
85701;SDS011;76139;50.888;3.882;2024-03-25T05:57:14;16.38;;;5.85;;
85701;SDS011;76139;50.888;3.882;2024-03-25T05:59:40;17.40;;;6.13;;
85701;SDS011;76139;50.888;3.882;2024-03-25T06:02:05;15.95;;;5.88;;
85701;SDS011;76139;50.888;3.882;2024-03-25T06:04:31;16.55;;;5.85;;
85701;SDS011;76139;50.888;3.882;2024-03-25T06:06:57;25.40;;;8.20;;
85701;SDS011;76139;50.888;3.882;2024-03-25T06:09:22;9.55;;;4.32;;
85701;SDS011;76139;50.888;3.882;2024-03-25T06:11:48;23.13;;;7.43;;
85701;SDS011;76139;50.888;3.882;2024-03-25T06:14:13;19.73;;;6.38;;
85701;SDS011;76139;50.888;3.882;2024-03-25T06:16:39;15.55;;;6.00;;
85701;SDS011;76139;50.888;3.882;2024-03-25T06:19:06;19.27;;;6.68;;
85701;SDS011;76139;50.888;3.882;2024-03-25T06:21:32;17.45;;;6.68;;
85701;SDS011;76139;50.888;3.882;2024-03-25T06:23:57;20.85;;;6.88;;
85701;SDS011;76139;50.888;3.882;2024-03-25T06:26:23;24.00;;;7.00;;
85701;SDS011;76139;50.888;3.882;2024-03-25T06:28:49;24.50;;;6.88;;
85701;SDS011;76139;50.888;3.882;2024-03-25T06:31:14;21.52;;;7.18;;
85701;SDS011;76139;50.888;3.882;2024-03-25T06:33:59;18.02;;;6.78;;
85701;SDS011;76139;50.888;3.882;2024-03-25T06:36:40;21.10;;;8.02;;
85701;SDS011;76139;50.888;3.882;2024-03-25T06:39:06;20.40;;;7.25;;
85701;SDS011;76139;50.888;3.882;2024-03-25T06:41:32;19.60;;;8.18;;
85701;SDS011;76139;50.888;3.882;2024-03-25T06:43:58;16.20;;;7.20;;
85701;SDS011;76139;50.888;3.882;2024-03-25T06:46:24;27.55;;;7.65;;
85701;SDS011;76139;50.888;3.882;2024-03-25T06:48:49;16.80;;;7.10;;
85701;SDS011;76139;50.888;3.882;2024-03-25T06:51:17;21.90;;;8.85;;
85701;SDS011;76139;50.888;3.882;2024-03-25T06:53:43;22.58;;;7.80;;
85701;SDS011;76139;50.888;3.882;2024-03-25T06:56:09;25.20;;;7.10;;
85701;SDS011;76139;50.888;3.882;2024-03-25T06:58:34;20.70;;;7.38;;
85701;SDS011;76139;50.888;3.882;2024-03-25T07:01:04;20.40;;;7.10;;
85701;SDS011;76139;50.888;3.882;2024-03-25T07:03:33;24.15;;;7.30;;
85701;SDS011;76139;50.888;3.882;2024-03-25T07:05:59;15.90;;;6.40;;
85701;SDS011;76139;50.888;3.882;2024-03-25T07:08:28;22.13;;;7.18;;
85701;SDS011;76139;50.888;3.882;2024-03-25T07:10:58;13.98;;;6.13;;
85701;SDS011;76139;50.888;3.882;2024-03-25T07:13:23;12.93;;;5.68;;
85701;SDS011;76139;50.888;3.882;2024-03-25T07:15:49;15.82;;;7.07;;
85701;SDS011;76139;50.888;3.882;2024-03-25T07:18:15;22.48;;;7.30;;
85701;SDS011;76139;50.888;3.882;2024-03-25T07:20:43;18.25;;;7.00;;
85701;SDS011;76139;50.888;3.882;2024-03-25T07:23:09;20.15;;;7.00;;
85701;SDS011;76139;50.888;3.882;2024-03-25T07:25:36;21.30;;;7.93;;
85701;SDS011;76139;50.888;3.882;2024-03-25T07:28:02;21.17;;;7.53;;
85701;SDS011;76139;50.888;3.882;2024-03-25T07:30:28;14.77;;;6.88;;
85701;SDS011;76139;50.888;3.882;2024-03-25T07:32:55;24.52;;;8.98;;
85701;SDS011;76139;50.888;3.882;2024-03-25T07:35:21;28.90;;;8.65;;
85701;SDS011;76139;50.888;3.882;2024-03-25T07:37:47;19.42;;;7.13;;
85701;SDS011;76139;50.888;3.882;2024-03-25T07:40:16;18.67;;;7.90;;
85701;SDS011;76139;50.888;3.882;2024-03-25T07:42:46;20.70;;;8.88;;
85701;SDS011;76139;50.888;3.882;2024-03-25T07:45:12;20.63;;;8.18;;
85701;SDS011;76139;50.888;3.882;2024-03-25T07:47:38;17.30;;;8.32;;
85701;SDS011;76139;50.888;3.882;2024-03-25T07:50:04;23.77;;;7.90;;
85701;SDS011;76139;50.888;3.882;2024-03-25T07:52:30;21.13;;;8.25;;
85701;SDS011;76139;50.888;3.882;2024-03-25T07:54:56;14.80;;;6.82;;
85701;SDS011;76139;50.888;3.882;2024-03-25T07:57:22;22.02;;;8.45;;
85701;SDS011;76139;50.888;3.882;2024-03-25T07:59:48;22.42;;;8.20;;
85701;SDS011;76139;50.888;3.882;2024-03-25T08:02:14;17.58;;;8.70;;
85701;SDS011;76139;50.888;3.882;2024-03-25T08:04:40;15.63;;;7.18;;
85701;SDS011;76139;50.888;3.882;2024-03-25T08:07:06;16.20;;;7.38;;
85701;SDS011;76139;50.888;3.882;2024-03-25T08:09:32;19.98;;;7.13;;
85701;SDS011;76139;50.888;3.882;2024-03-25T08:11:58;17.75;;;6.50;;
85701;SDS011;76139;50.888;3.882;2024-03-25T08:14:23;17.70;;;7.38;;
85701;SDS011;76139;50.888;3.882;2024-03-25T08:16:49;24.00;;;8.38;;
85701;SDS011;76139;50.888;3.882;2024-03-25T08:19:15;18.75;;;7.13;;
85701;SDS011;76139;50.888;3.882;2024-03-25T08:21:41;16.60;;;6.00;;
85701;SDS011;76139;50.888;3.882;2024-03-25T08:24:06;15.98;;;6.20;;
85701;SDS011;76139;50.888;3.882;2024-03-25T08:26:32;20.17;;;7.25;;
85701;SDS011;76139;50.888;3.882;2024-03-25T08:28:58;19.70;;;8.15;;
85701;SDS011;76139;50.888;3.882;2024-03-25T08:31:24;14.40;;;6.68;;
85701;SDS011;76139;50.888;3.882;2024-03-25T08:33:49;17.08;;;6.32;;
85701;SDS011;76139;50.888;3.882;2024-03-25T08:36:15;16.98;;;6.53;;
85701;SDS011;76139;50.888;3.882;2024-03-25T08:38:41;16.63;;;6.60;;
85701;SDS011;76139;50.888;3.882;2024-03-25T08:41:07;12.38;;;5.88;;
85701;SDS011;76139;50.888;3.882;2024-03-25T08:43:33;14.38;;;5.88;;
85701;SDS011;76139;50.888;3.882;2024-03-25T08:45:58;14.80;;;6.13;;
85701;SDS011;76139;50.888;3.882;2024-03-25T08:48:24;17.13;;;5.70;;
85701;SDS011;76139;50.888;3.882;2024-03-25T08:50:49;11.80;;;4.45;;
85701;SDS011;76139;50.888;3.882;2024-03-25T08:53:15;16.10;;;5.53;;
85701;SDS011;76139;50.888;3.882;2024-03-25T08:55:47;13.50;;;5.53;;
85701;SDS011;76139;50.888;3.882;2024-03-25T08:58:14;14.38;;;5.28;;
85701;SDS011;76139;50.888;3.882;2024-03-25T09:00:40;14.52;;;5.45;;
85701;SDS011;76139;50.888;3.882;2024-03-25T09:03:08;12.63;;;5.35;;
85701;SDS011;76139;50.888;3.882;2024-03-25T09:05:35;11.98;;;5.15;;
85701;SDS011;76139;50.888;3.882;2024-03-25T09:08:03;10.60;;;4.75;;
85701;SDS011;76139;50.888;3.882;2024-03-25T09:10:31;11.43;;;5.10;;
85701;SDS011;76139;50.888;3.882;2024-03-25T09:13:15;14.70;;;5.15;;
85701;SDS011;76139;50.888;3.882;2024-03-25T09:15:41;15.63;;;5.28;;
85701;SDS011;76139;50.888;3.882;2024-03-25T09:18:07;11.00;;;5.70;;
85701;SDS011;76139;50.888;3.882;2024-03-25T09:20:33;12.27;;;4.68;;
85701;SDS011;76139;50.888;3.882;2024-03-25T09:22:59;15.98;;;6.78;;
85701;SDS011;76139;50.888;3.882;2024-03-25T09:25:24;12.45;;;5.40;;
85701;SDS011;76139;50.888;3.882;2024-03-25T09:27:50;13.05;;;4.95;;
85701;SDS011;76139;50.888;3.882;2024-03-25T09:30:16;14.85;;;5.78;;
85701;SDS011;76139;50.888;3.882;2024-03-25T09:32:44;13.45;;;6.20;;
85701;SDS011;76139;50.888;3.882;2024-03-25T09:35:10;20.40;;;7.40;;
85701;SDS011;76139;50.888;3.882;2024-03-25T09:37:36;16.55;;;7.47;;
85701;SDS011;76139;50.888;3.882;2024-03-25T09:40:02;14.77;;;5.85;;
85701;SDS011;76139;50.888;3.882;2024-03-25T09:42:34;17.13;;;7.43;;
85701;SDS011;76139;50.888;3.882;2024-03-25T09:45:04;15.57;;;6.82;;
85701;SDS011;76139;50.888;3.882;2024-03-25T09:47:33;12.38;;;6.03;;
85701;SDS011;76139;50.888;3.882;2024-03-25T09:49:59;13.52;;;6.22;;
85701;SDS011;76139;50.888;3.882;2024-03-25T09:52:29;23.00;;;8.07;;
85701;SDS011;76139;50.888;3.882;2024-03-25T09:54:55;17.35;;;7.93;;
85701;SDS011;76139;50.888;3.882;2024-03-25T09:57:21;19.48;;;9.13;;
85701;SDS011;76139;50.888;3.882;2024-03-25T09:59:47;18.85;;;9.73;;
85701;SDS011;76139;50.888;3.882;2024-03-25T10:02:13;19.88;;;10.38;;
85701;SDS011;76139;50.888;3.882;2024-03-25T10:04:44;23.60;;;12.85;;
85701;SDS011;76139;50.888;3.882;2024-03-25T10:07:20;21.75;;;12.13;;
85701;SDS011;76139;50.888;3.882;2024-03-25T10:09:49;24.95;;;13.55;;
85701;SDS011;76139;50.888;3.882;2024-03-25T10:12:16;23.42;;;13.50;;
85701;SDS011;76139;50.888;3.882;2024-03-25T10:14:41;25.45;;;14.65;;
85701;SDS011;76139;50.888;3.882;2024-03-25T10:17:07;19.35;;;12.35;;
85701;SDS011;76139;50.888;3.882;2024-03-25T10:19:33;20.23;;;10.85;;
85701;SDS011;76139;50.888;3.882;2024-03-25T10:22:03;15.82;;;9.38;;
85701;SDS011;76139;50.888;3.882;2024-03-25T10:24:39;16.25;;;9.75;;
85701;SDS011;76139;50.888;3.882;2024-03-25T10:27:06;17.08;;;10.82;;
85701;SDS011;76139;50.888;3.882;2024-03-25T10:29:36;22.92;;;12.77;;
85701;SDS011;76139;50.888;3.882;2024-03-25T10:32:02;20.33;;;12.00;;
85701;SDS011;76139;50.888;3.882;2024-03-25T10:34:29;17.25;;;11.80;;
85701;SDS011;76139;50.888;3.882;2024-03-25T10:36:58;22.95;;;14.60;;
85701;SDS011;76139;50.888;3.882;2024-03-25T10:39:27;30.58;;;14.00;;
85701;SDS011;76139;50.888;3.882;2024-03-25T10:41:56;22.23;;;12.30;;
85701;SDS011;76139;50.888;3.882;2024-03-25T10:44:27;19.58;;;11.27;;
85701;SDS011;76139;50.888;3.882;2024-03-25T10:46:58;19.05;;;12.25;;
85701;SDS011;76139;50.888;3.882;2024-03-25T10:49:33;13.48;;;8.13;;
85701;SDS011;76139;50.888;3.882;2024-03-25T10:52:06;15.55;;;7.85;;
85701;SDS011;76139;50.888;3.882;2024-03-25T10:54:32;13.35;;;8.13;;
85701;SDS011;76139;50.888;3.882;2024-03-25T10:56:59;14.00;;;7.97;;
85701;SDS011;76139;50.888;3.882;2024-03-25T10:59:28;16.90;;;8.95;;
85701;SDS011;76139;50.888;3.882;2024-03-25T11:01:55;18.20;;;8.07;;
85701;SDS011;76139;50.888;3.882;2024-03-25T11:04:21;9.65;;;4.60;;
85701;SDS011;76139;50.888;3.882;2024-03-25T11:06:49;11.60;;;5.55;;
85701;SDS011;76139;50.888;3.882;2024-03-25T11:09:24;15.98;;;6.63;;
85701;SDS011;76139;50.888;3.882;2024-03-25T11:11:53;10.02;;;5.20;;
85701;SDS011;76139;50.888;3.882;2024-03-25T11:14:18;7.72;;;3.30;;
85701;SDS011;76139;50.888;3.882;2024-03-25T11:16:50;9.55;;;4.05;;
85701;SDS011;76139;50.888;3.882;2024-03-25T11:19:25;9.30;;;3.55;;
85701;SDS011;76139;50.888;3.882;2024-03-25T11:21:51;11.02;;;3.70;;
85701;SDS011;76139;50.888;3.882;2024-03-25T11:24:35;9.48;;;3.67;;
85701;SDS011;76139;50.888;3.882;2024-03-25T11:27:02;11.05;;;4.18;;
85701;SDS011;76139;50.888;3.882;2024-03-25T11:29:31;9.40;;;4.75;;
85701;SDS011;76139;50.888;3.882;2024-03-25T11:31:57;9.45;;;4.30;;
85701;SDS011;76139;50.888;3.882;2024-03-25T11:34:28;8.77;;;3.70;;
85701;SDS011;76139;50.888;3.882;2024-03-25T11:36:53;6.68;;;3.50;;
85701;SDS011;76139;50.888;3.882;2024-03-25T11:39:21;7.25;;;3.00;;
85701;SDS011;76139;50.888;3.882;2024-03-25T11:41:47;6.68;;;2.90;;
85701;SDS011;76139;50.888;3.882;2024-03-25T11:44:13;8.00;;;2.72;;
85701;SDS011;76139;50.888;3.882;2024-03-25T11:46:39;5.65;;;2.75;;
85701;SDS011;76139;50.888;3.882;2024-03-25T11:49:06;7.00;;;2.40;;
85701;SDS011;76139;50.888;3.882;2024-03-25T11:51:35;4.88;;;2.00;;
85701;SDS011;76139;50.888;3.882;2024-03-25T11:54:04;4.97;;;2.08;;
85701;SDS011;76139;50.888;3.882;2024-03-25T11:56:30;7.47;;;2.53;;
85701;SDS011;76139;50.888;3.882;2024-03-25T11:58:57;6.80;;;2.30;;
85701;SDS011;76139;50.888;3.882;2024-03-25T12:01:24;6.30;;;2.13;;
85701;SDS011;76139;50.888;3.882;2024-03-25T12:03:50;6.68;;;2.33;;
85701;SDS011;76139;50.888;3.882;2024-03-25T12:06:16;5.57;;;2.13;;
85701;SDS011;76139;50.888;3.882;2024-03-25T12:08:42;6.75;;;2.72;;
85701;SDS011;76139;50.888;3.882;2024-03-25T12:11:30;5.35;;;2.35;;
85701;SDS011;76139;50.888;3.882;2024-03-25T12:13:57;5.10;;;2.22;;
85701;SDS011;76139;50.888;3.882;2024-03-25T12:16:24;7.25;;;3.38;;
85701;SDS011;76139;50.888;3.882;2024-03-25T12:18:50;4.00;;;2.00;;
85701;SDS011;76139;50.888;3.882;2024-03-25T12:21:18;6.93;;;2.60;;
85701;SDS011;76139;50.888;3.882;2024-03-25T12:23:44;4.20;;;2.20;;
85701;SDS011;76139;50.888;3.882;2024-03-25T12:26:11;6.03;;;2.05;;
85701;SDS011;76139;50.888;3.882;2024-03-25T12:28:37;7.35;;;2.75;;
85701;SDS011;76139;50.888;3.882;2024-03-25T12:31:07;4.63;;;1.88;;
85701;SDS011;76139;50.888;3.882;2024-03-25T12:33:40;4.90;;;2.03;;
85701;SDS011;76139;50.888;3.882;2024-03-25T12:36:06;5.00;;;2.63;;
85701;SDS011;76139;50.888;3.882;2024-03-25T12:38:33;5.10;;;2.10;;
85701;SDS011;76139;50.888;3.882;2024-03-25T12:41:11;3.83;;;2.25;;
85701;SDS011;76139;50.888;3.882;2024-03-25T12:43:43;6.25;;;2.30;;
85701;SDS011;76139;50.888;3.882;2024-03-25T12:46:10;2.40;;;1.58;;
85701;SDS011;76139;50.888;3.882;2024-03-25T12:48:36;4.20;;;2.00;;
85701;SDS011;76139;50.888;3.882;2024-03-25T12:51:03;6.07;;;2.42;;
85701;SDS011;76139;50.888;3.882;2024-03-25T12:53:29;5.20;;;2.28;;
85701;SDS011;76139;50.888;3.882;2024-03-25T12:55:56;3.80;;;2.50;;
85701;SDS011;76139;50.888;3.882;2024-03-25T12:58:22;6.00;;;2.40;;
85701;SDS011;76139;50.888;3.882;2024-03-25T13:00:47;3.67;;;1.95;;
85701;SDS011;76139;50.888;3.882;2024-03-25T13:03:13;4.90;;;1.90;;
85701;SDS011;76139;50.888;3.882;2024-03-25T13:05:40;7.13;;;2.45;;
85701;SDS011;76139;50.888;3.882;2024-03-25T13:08:08;6.28;;;2.15;;
85701;SDS011;76139;50.888;3.882;2024-03-25T13:10:34;5.22;;;2.17;;
85701;SDS011;76139;50.888;3.882;2024-03-25T13:13:00;4.78;;;2.42;;
85701;SDS011;76139;50.888;3.882;2024-03-25T13:15:27;4.78;;;1.80;;
85701;SDS011;76139;50.888;3.882;2024-03-25T13:17:53;5.88;;;2.38;;
85701;SDS011;76139;50.888;3.882;2024-03-25T13:20:19;3.38;;;2.03;;
85701;SDS011;76139;50.888;3.882;2024-03-25T13:22:45;5.22;;;1.98;;
85701;SDS011;76139;50.888;3.882;2024-03-25T13:25:12;7.22;;;2.42;;
85701;SDS011;76139;50.888;3.882;2024-03-25T13:27:37;5.47;;;2.30;;
85701;SDS011;76139;50.888;3.882;2024-03-25T13:30:05;4.43;;;2.10;;
85701;SDS011;76139;50.888;3.882;2024-03-25T13:32:31;6.07;;;2.53;;
85701;SDS011;76139;50.888;3.882;2024-03-25T13:34:57;4.50;;;2.22;;
85701;SDS011;76139;50.888;3.882;2024-03-25T13:37:23;5.13;;;2.55;;
85701;SDS011;76139;50.888;3.882;2024-03-25T13:39:48;6.32;;;1.88;;
85701;SDS011;76139;50.888;3.882;2024-03-25T13:42:15;4.22;;;2.30;;
85701;SDS011;76139;50.888;3.882;2024-03-25T13:44:41;5.45;;;2.65;;
85701;SDS011;76139;50.888;3.882;2024-03-25T13:47:10;7.03;;;2.35;;
85701;SDS011;76139;50.888;3.882;2024-03-25T13:49:38;5.53;;;2.70;;
85701;SDS011;76139;50.888;3.882;2024-03-25T13:52:04;5.88;;;2.40;;
85701;SDS011;76139;50.888;3.882;2024-03-25T13:54:30;6.43;;;2.22;;
85701;SDS011;76139;50.888;3.882;2024-03-25T13:56:59;7.78;;;2.10;;
85701;SDS011;76139;50.888;3.882;2024-03-25T13:59:24;4.80;;;2.13;;
85701;SDS011;76139;50.888;3.882;2024-03-25T14:01:50;3.55;;;1.88;;
85701;SDS011;76139;50.888;3.882;2024-03-25T14:04:18;5.60;;;2.15;;
85701;SDS011;76139;50.888;3.882;2024-03-25T14:06:44;6.30;;;2.20;;
85701;SDS011;76139;50.888;3.882;2024-03-25T14:09:24;7.07;;;2.38;;
85701;SDS011;76139;50.888;3.882;2024-03-25T14:11:52;7.75;;;2.70;;
85701;SDS011;76139;50.888;3.882;2024-03-25T14:14:18;5.95;;;2.38;;
85701;SDS011;76139;50.888;3.882;2024-03-25T14:16:44;5.82;;;2.05;;
85701;SDS011;76139;50.888;3.882;2024-03-25T14:19:10;5.30;;;2.22;;
85701;SDS011;76139;50.888;3.882;2024-03-25T14:21:35;6.63;;;2.28;;
85701;SDS011;76139;50.888;3.882;2024-03-25T14:24:01;4.93;;;2.33;;
85701;SDS011;76139;50.888;3.882;2024-03-25T14:26:28;3.10;;;1.70;;
85701;SDS011;76139;50.888;3.882;2024-03-25T14:28:54;4.35;;;2.38;;
85701;SDS011;76139;50.888;3.882;2024-03-25T14:31:20;4.22;;;1.95;;
85701;SDS011;76139;50.888;3.882;2024-03-25T14:33:45;5.95;;;1.92;;